Time;durP1;ratioP1;P1;durP2;ratioP2;P2;SDS_P1;SDS_P2;PMS_P1;PMS_P2;Temp;Humidity;BMP_temperature;BMP_pressure;BME280_temperature;BME280_humidity;BME280_pressure;Samples;Min_cycle;Max_cycle;Signal;HPM_P1;HPM_P2
2021/03/30 00:00:30;;;;;;;101.55;55.12;;;;;;;4.57;62.86;95908.70;1829027;78;21180;-62
2021/03/30 00:02:58;;;;;;;94.07;51.85;;;;;;;4.58;62.92;95908.90;1829260;78;21182;-56
2021/03/30 00:05:27;;;;;;;78.45;46.60;;;;;;;4.63;62.83;95899.76;1829287;78;21196;-57
2021/03/30 00:07:55;;;;;;;74.22;43.63;;;;;;;4.59;62.87;95904.41;1829188;78;21123;-57
2021/03/30 00:10:37;;;;;;;85.25;46.92;;;;;;;4.58;63.02;95901.48;1829257;78;21179;-56
2021/03/30 00:13:07;;;;;;;92.97;47.23;;;;;;;4.59;62.95;95894.88;1829163;78;21175;-59
2021/03/30 00:15:35;;;;;;;98.80;51.28;;;;;;;4.56;62.93;95892.92;1829284;78;21207;-58
2021/03/30 00:18:03;;;;;;;89.00;47.25;;;;;;;4.59;63.14;95888.06;1829319;78;21197;-56
2021/03/30 00:20:30;;;;;;;99.70;50.48;;;;;;;4.67;62.81;95892.41;1829166;78;21120;-58
2021/03/30 00:22:59;;;;;;;109.37;53.42;;;;;;;4.65;62.51;95884.41;1829265;78;21108;-57
2021/03/30 00:25:27;;;;;;;106.22;53.63;;;;;;;4.59;62.60;95888.66;1829255;78;21634;-58
2021/03/30 00:27:55;;;;;;;100.47;50.70;;;;;;;4.58;62.75;95888.46;1829381;78;21615;-56
2021/03/30 00:30:23;;;;;;;99.50;55.65;;;;;;;4.60;62.80;95882.05;1829348;78;21255;-56
2021/03/30 00:32:51;;;;;;;87.33;50.00;;;;;;;4.65;62.73;95881.11;1828986;77;21125;-57
2021/03/30 00:35:19;;;;;;;89.47;50.88;;;;;;;4.72;62.58;95882.50;1829239;78;21611;-57
2021/03/30 00:37:48;;;;;;;84.75;46.65;;;;;;;4.75;62.34;95874.91;1829199;78;21159;-57
2021/03/30 00:40:17;;;;;;;79.85;43.83;;;;;;;4.75;62.15;95873.55;1800087;78;21111;-57
2021/03/30 00:42:45;;;;;;;73.78;41.48;;;;;;;4.70;62.03;95867.11;1829286;78;21560;-57
2021/03/30 00:45:15;;;;;;;63.02;35.90;;;;;;;4.66;62.07;95871.77;1829249;78;21147;-57
2021/03/30 00:47:45;;;;;;;73.02;38.00;;;;;;;4.66;61.93;95868.25;1829322;78;21071;-57
2021/03/30 00:50:17;;;;;;;94.35;47.40;;;;;;;4.63;62.06;95871.14;1829400;78;21036;-57
2021/03/30 00:52:46;;;;;;;105.10;52.30;;;;;;;4.65;62.16;95864.76;1829291;78;21112;-56
2021/03/30 00:55:33;;;;;;;106.25;51.85;;;;;;;4.68;61.96;95863.98;1829227;78;21385;-55
2021/03/30 00:58:03;;;;;;;100.60;49.45;;;;;;;4.68;61.75;95866.71;1829289;78;21132;-56
2021/03/30 01:00:31;;;;;;;106.90;55.20;;;;;;;4.62;61.45;95866.09;1799529;78;21124;-57
2021/03/30 01:02:59;;;;;;;105.65;53.60;;;;;;;4.40;61.67;95862.46;1829212;78;21694;-57
2021/03/30 01:05:27;;;;;;;110.70;55.58;;;;;;;4.26;62.22;95861.60;1799669;78;21639;-57
2021/03/30 01:08:15;;;;;;;118.70;57.10;;;;;;;4.23;62.46;95856.91;1829167;78;21387;-57
2021/03/30 01:10:59;;;;;;;102.50;50.83;;;;;;;4.25;62.63;95862.77;1829137;78;21163;-56
2021/03/30 01:14:13;;;;;;;87.10;46.05;;;;;;;4.34;62.23;95860.47;1799489;78;21191;-56
2021/03/30 01:16:53;;;;;;;83.60;44.18;;;;;;;4.26;62.27;95861.00;1829391;78;21152;-57
2021/03/30 01:20:07;;;;;;;90.80;46.20;;;;;;;4.24;62.25;95861.97;1799139;78;21569;-63
2021/03/30 01:22:46;;;;;;;83.78;44.27;;;;;;;4.25;62.42;95858.08;1829264;78;22329;-57
2021/03/30 01:25:15;;;;;;;75.65;42.43;;;;;;;4.24;62.71;95855.75;1829077;78;21139;-56
2021/03/30 01:28:10;;;;;;;79.10;40.55;;;;;;;4.27;62.81;95851.67;1829280;78;21127;-57
2021/03/30 01:30:39;;;;;;;74.25;36.77;;;;;;;4.24;62.41;95858.48;1829191;78;21067;-60
2021/03/30 01:33:11;;;;;;;62.35;33.85;;;;;;;4.06;62.28;95854.25;1829004;77;21128;-57
2021/03/30 01:35:39;;;;;;;61.23;35.13;;;;;;;3.98;62.38;95851.86;1829524;78;21268;-57
2021/03/30 01:38:08;;;;;;;67.32;35.60;;;;;;;3.92;62.76;95855.53;1829203;78;21143;-57
2021/03/30 01:40:36;;;;;;;91.47;53.45;;;;;;;3.95;62.76;95854.78;1829128;78;21108;-56
2021/03/30 01:43:06;;;;;;;108.72;57.38;;;;;;;3.97;63.02;95849.73;1829339;78;21148;-56
2021/03/30 01:45:34;;;;;;;100.42;59.95;;;;;;;3.92;63.13;95847.37;1829290;78;21135;-57
2021/03/30 01:48:04;;;;;;;98.22;57.27;;;;;;;3.85;63.39;95847.30;1829273;78;21560;-56
2021/03/30 01:50:31;;;;;;;98.58;54.93;;;;;;;3.74;63.62;95845.09;1829082;78;21215;-58
2021/03/30 01:52:59;;;;;;;91.08;52.33;;;;;;;3.65;63.70;95844.61;1829128;78;21505;-57
2021/03/30 01:55:28;;;;;;;74.90;46.80;;;;;;;3.50;64.18;95841.56;1829120;78;21191;-56
2021/03/30 01:57:58;;;;;;;60.88;37.13;;;;;;;3.47;64.45;95851.07;1799739;78;21095;-56
2021/03/30 02:00:33;;;;;;;54.53;33.18;;;;;;;3.47;64.29;95851.62;1800027;78;21587;-56
2021/03/30 02:03:02;;;;;;;54.77;31.48;;;;;;;3.40;63.93;95850.22;1829114;78;21194;-59
2021/03/30 02:05:31;;;;;;;55.25;32.55;;;;;;;3.34;64.00;95850.33;1829124;78;21044;-58
2021/03/30 02:08:00;;;;;;;60.50;35.83;;;;;;;3.34;64.08;95853.05;1829097;78;21632;-58
2021/03/30 02:10:32;;;;;;;71.57;41.30;;;;;;;3.38;64.08;95850.58;1829190;78;21128;-57
2021/03/30 02:13:00;;;;;;;72.05;42.25;;;;;;;3.42;63.94;95848.67;1829188;78;21486;-58
2021/03/30 02:15:30;;;;;;;72.60;42.43;;;;;;;3.48;64.07;95854.55;1829175;78;21500;-56
2021/03/30 02:18:11;;;;;;;67.87;39.48;;;;;;;3.60;63.95;95859.13;1829056;78;21131;-57
2021/03/30 02:20:42;;;;;;;69.30;40.50;;;;;;;3.65;63.40;95851.41;1800028;78;21223;-56
2021/03/30 02:23:23;;;;;;;61.08;38.23;;;;;;;3.54;63.25;95850.53;1829140;78;21056;-56
2021/03/30 02:25:54;;;;;;;72.25;40.45;;;;;;;3.45;63.31;95849.87;1829287;78;21500;-57
2021/03/30 02:28:46;;;;;;;70.10;39.87;;;;;;;3.38;63.57;95846.50;1829340;78;21179;-60
2021/03/30 02:31:16;;;;;;;69.07;41.33;;;;;;;3.38;63.95;95851.17;1803932;78;21426;-58
2021/03/30 02:33:48;;;;;;;67.32;38.23;;;;;;;3.44;63.92;95851.80;1828982;77;21175;-58
2021/03/30 02:36:18;;;;;;;59.42;35.88;;;;;;;3.49;63.71;95850.88;1829428;78;21116;-58
2021/03/30 02:38:47;;;;;;;67.65;37.70;;;;;;;3.50;63.78;95847.00;1829030;78;21193;-57
2021/03/30 02:41:17;;;;;;;60.20;36.95;;;;;;;3.49;63.69;95852.23;1828903;78;21278;-57
2021/03/30 02:43:45;;;;;;;60.67;37.13;;;;;;;3.51;63.76;95856.72;1799583;78;21138;-56
2021/03/30 02:46:15;;;;;;;63.50;38.88;;;;;;;3.54;63.74;95857.33;1829350;78;21194;-56
2021/03/30 02:48:43;;;;;;;68.28;39.13;;;;;;;3.63;63.60;95853.73;1829241;78;21104;-56
2021/03/30 02:51:11;;;;;;;63.15;39.05;;;;;;;3.66;63.27;95855.70;1773999;78;21725;-60
2021/03/30 02:53:39;;;;;;;62.65;36.55;;;;;;;3.74;63.29;95853.25;1829062;78;21509;-59
2021/03/30 02:56:07;;;;;;;54.20;34.95;;;;;;;3.77;62.98;95856.58;1829153;78;21136;-57
2021/03/30 02:58:37;;;;;;;60.88;35.00;;;;;;;3.77;62.84;95862.59;1829271;78;21127;-58
2021/03/30 03:01:05;;;;;;;49.30;30.90;;;;;;;3.78;63.21;95869.03;1829146;78;21644;-58
2021/03/30 03:03:34;;;;;;;51.35;29.90;;;;;;;3.77;63.17;95861.23;1829191;78;22826;-57
2021/03/30 03:06:02;;;;;;;52.53;30.55;;;;;;;3.67;63.61;95868.14;1799328;78;21112;-58
2021/03/30 03:08:31;;;;;;;94.07;49.63;;;;;;;3.58;64.02;95869.05;1829213;78;21485;-57
2021/03/30 03:10:59;;;;;;;100.78;53.83;;;;;;;3.59;64.64;95862.45;1829147;78;21121;-57
2021/03/30 03:13:29;;;;;;;75.35;44.40;;;;;;;3.73;64.52;95859.06;1829025;78;21124;-57
2021/03/30 03:15:58;;;;;;;75.22;43.05;;;;;;;3.89;64.22;95854.14;1829107;78;21311;-57
2021/03/30 03:18:25;;;;;;;73.45;42.38;;;;;;;4.02;63.79;95860.27;1829026;78;21175;-57
2021/03/30 03:20:54;;;;;;;79.87;42.27;;;;;;;4.06;63.41;95861.06;1829397;78;21160;-56
2021/03/30 03:23:22;;;;;;;102.45;54.73;;;;;;;4.10;63.29;95861.89;1829359;78;21590;-57
2021/03/30 03:25:51;;;;;;;102.85;53.75;;;;;;;4.12;63.22;95855.48;1829319;78;21115;-56
2021/03/30 03:28:18;;;;;;;83.65;44.80;;;;;;;4.19;63.12;95850.08;1829315;78;22189;-57
2021/03/30 03:30:47;;;;;;;73.65;43.95;;;;;;;4.13;63.05;95845.36;1829262;78;21143;-57
2021/03/30 03:33:15;;;;;;;58.25;35.52;;;;;;;4.02;63.59;95841.20;1828222;77;21572;-56
2021/03/30 03:36:07;;;;;;;69.77;38.28;;;;;;;4.11;63.48;95854.48;1826074;78;21183;-56
2021/03/30 03:38:42;;;;;;;61.28;35.58;;;;;;;4.13;63.66;95853.53;1826077;78;21131;-57
2021/03/30 03:41:13;;;;;;;84.32;49.35;;;;;;;4.23;63.40;95847.39;1826093;78;21197;-56
2021/03/30 03:43:41;;;;;;;69.80;37.15;;;;;;;4.21;63.24;95846.39;1794766;78;21176;-58
2021/03/30 03:46:11;;;;;;;56.37;33.98;;;;;;;4.15;63.28;95839.75;1825927;78;21580;-57
2021/03/30 03:48:39;;;;;;;52.98;31.70;;;;;;;4.17;63.54;95847.52;1795186;78;21615;-58
2021/03/30 03:51:07;;;;;;;59.05;35.40;;;;;;;4.20;63.25;95850.28;1826018;78;21191;-60
2021/03/30 03:53:36;;;;;;;53.45;33.67;;;;;;;4.08;63.32;95838.31;1825877;78;21184;-61
2021/03/30 03:56:06;;;;;;;59.20;36.03;;;;;;;4.06;63.74;95836.56;1826044;78;21164;-58
2021/03/30 03:58:40;;;;;;;194.77;89.67;;;;;;;4.13;63.76;95835.27;1826341;78;21069;-57
2021/03/30 04:01:18;;;;;;;86.25;43.98;;;;;;;4.16;63.32;95845.95;1826176;78;21179;-60
2021/03/30 04:03:53;;;;;;;79.30;43.73;;;;;;;3.92;63.25;95844.65;1795368;78;21140;-57
2021/03/30 04:06:35;;;;;;;58.85;35.90;;;;;;;3.77;64.22;95845.69;1826093;78;21171;-57
2021/03/30 04:09:04;;;;;;;77.53;44.63;;;;;;;3.90;64.29;95851.62;1826272;78;21081;-57
2021/03/30 04:11:32;;;;;;;85.05;47.58;;;;;;;4.07;64.05;95850.38;1826072;78;21170;-58
2021/03/30 04:14:00;;;;;;;68.47;38.55;;;;;;;4.17;63.70;95855.13;1825971;78;21584;-57
2021/03/30 04:16:30;;;;;;;56.40;32.95;;;;;;;4.21;63.82;95853.20;1826179;78;21147;-58
2021/03/30 04:18:59;;;;;;;61.98;36.80;;;;;;;4.28;63.73;95858.67;1826081;78;21175;-60
2021/03/30 04:21:32;;;;;;;58.78;32.58;;;;;;;4.39;63.49;95852.73;1825931;78;21071;-56
2021/03/30 04:24:00;;;;;;;54.20;33.15;;;;;;;4.54;63.08;95857.66;1826185;78;21128;-57
2021/03/30 04:26:28;;;;;;;67.90;37.55;;;;;;;4.66;62.69;95857.34;1826010;78;21159;-56
2021/03/30 04:28:56;;;;;;;53.92;33.18;;;;;;;4.71;62.57;95851.52;1826052;78;21104;-56
2021/03/30 04:31:24;;;;;;;52.70;31.25;;;;;;;4.78;62.20;95857.02;1825990;78;21350;-61
2021/03/30 04:33:52;;;;;;;59.85;34.90;;;;;;;4.79;62.12;95854.50;1825606;77;21859;-58
2021/03/30 04:36:20;;;;;;;91.15;51.55;;;;;;;4.84;61.82;95858.21;1826072;78;21179;-60
2021/03/30 04:38:48;;;;;;;112.47;60.80;;;;;;;4.84;61.75;95854.91;1825911;78;21148;-57
2021/03/30 04:41:17;;;;;;;126.80;69.65;;;;;;;4.75;61.61;95849.62;1826074;78;21108;-57
2021/03/30 04:43:46;;;;;;;122.02;64.97;;;;;;;4.61;62.10;95857.13;1825940;78;21127;-64
2021/03/30 04:46:14;;;;;;;124.05;64.75;;;;;;;4.49;62.42;95849.30;1825898;78;21250;-58
2021/03/30 04:48:42;;;;;;;120.50;65.22;;;;;;;4.36;62.82;95852.13;1826026;78;21116;-58
2021/03/30 04:51:10;;;;;;;124.07;63.50;;;;;;;4.24;63.29;95851.07;1825985;78;21167;-58
2021/03/30 04:53:38;;;;;;;107.22;55.40;;;;;;;4.08;63.57;95854.66;1825980;78;21116;-59
2021/03/30 04:56:06;;;;;;;114.75;59.85;;;;;;;3.99;64.08;95854.22;1826111;78;21208;-57
2021/03/30 04:58:34;;;;;;;127.38;69.15;;;;;;;3.94;64.44;95847.77;1826021;78;21941;-56
2021/03/30 05:01:03;;;;;;;112.52;63.60;;;;;;;4.02;64.50;95842.56;1826062;78;21128;-58
2021/03/30 05:03:31;;;;;;;120.37;63.38;;;;;;;4.16;64.42;95853.56;1794650;78;21179;-57
2021/03/30 05:05:59;;;;;;;121.25;68.07;;;;;;;4.16;64.34;95857.64;1825949;78;21066;-57
2021/03/30 05:08:27;;;;;;;128.53;70.00;;;;;;;4.12;64.62;95860.93;1825982;78;21144;-58
2021/03/30 05:10:56;;;;;;;151.78;78.95;;;;;;;4.18;64.95;95859.41;1825919;78;21143;-59
2021/03/30 05:13:24;;;;;;;149.47;76.02;;;;;;;4.31;64.54;95857.95;1826037;78;21195;-57
2021/03/30 05:15:52;;;;;;;142.35;82.72;;;;;;;4.45;64.73;95862.09;1826267;78;21151;-57
2021/03/30 05:18:20;;;;;;;139.52;70.57;;;;;;;4.66;64.35;95869.05;1794501;78;21064;-60
2021/03/30 05:20:49;;;;;;;118.35;66.77;;;;;;;4.80;63.74;95866.36;1827192;77;22226;-60
2021/03/30 05:23:17;;;;;;;129.82;68.80;;;;;;;4.81;63.41;95862.47;1822568;77;21726;-58
2021/03/30 05:25:45;;;;;;;130.55;67.95;;;;;;;4.79;63.32;95862.08;1825710;78;21124;-57
2021/03/30 05:28:13;;;;;;;126.75;72.05;;;;;;;4.83;63.30;95862.87;1825995;78;21159;-58
2021/03/30 05:30:41;;;;;;;131.85;73.83;;;;;;;4.83;63.02;95864.83;1828986;77;21624;-61
2021/03/30 05:33:09;;;;;;;133.43;72.65;;;;;;;4.76;63.15;95862.08;1809569;77;21417;-61
2021/03/30 05:35:38;;;;;;;124.90;73.22;;;;;;;4.62;63.39;95863.37;1803931;77;21129;-56
2021/03/30 05:38:06;;;;;;;127.95;73.97;;;;;;;4.48;63.90;95866.80;1811388;78;21187;-61
2021/03/30 05:40:34;;;;;;;135.05;75.85;;;;;;;4.48;64.08;95860.56;1830446;77;21166;-62
2021/03/30 05:43:02;;;;;;;103.22;63.05;;;;;;;4.51;64.33;95872.05;1796703;77;21213;-58
2021/03/30 05:45:32;;;;;;;131.75;81.95;;;;;;;4.55;64.36;95868.20;1825640;77;21120;-63
2021/03/30 05:48:00;;;;;;;143.47;85.22;;;;;;;4.65;64.48;95862.03;1823824;77;21191;-61
2021/03/30 05:50:34;;;;;;;135.18;85.12;;;;;;;4.82;64.45;95864.63;1816130;78;21140;-60
2021/03/30 05:53:06;;;;;;;120.10;72.35;;;;;;;5.02;63.99;95867.24;1822665;78;21495;-61
2021/03/30 05:55:37;;;;;;;119.22;70.35;;;;;;;5.28;63.58;95867.12;1819143;78;21646;-63
2021/03/30 05:58:06;;;;;;;125.02;74.37;;;;;;;5.50;63.31;95870.69;1793941;78;21210;-57
2021/03/30 06:00:42;;;;;;;107.40;68.05;;;;;;;5.72;62.24;95870.34;1833837;77;21729;-60
2021/03/30 06:03:18;;;;;;;123.22;75.25;;;;;;;5.84;62.26;95875.46;1825400;78;21234;-58
2021/03/30 06:05:45;;;;;;;103.38;63.78;;;;;;;5.96;61.48;95875.05;1783569;79;21204;-57
2021/03/30 06:08:14;;;;;;;97.80;58.00;;;;;;;5.99;61.10;95869.41;1750367;81;21171;-60
2021/03/30 06:10:41;;;;;;;100.25;63.78;;;;;;;6.07;61.04;95877.79;1770518;79;21681;-60
2021/03/30 06:13:10;;;;;;;99.35;53.80;;;;;;;6.11;60.82;95875.25;1756818;79;21124;-62
2021/03/30 06:15:38;;;;;;;78.60;49.85;;;;;;;6.10;60.57;95874.27;1767313;79;21226;-61
2021/03/30 06:18:19;;;;;;;78.52;49.18;;;;;;;6.07;60.37;95871.75;1785777;79;21650;-59
2021/03/30 06:20:49;;;;;;;75.40;48.17;;;;;;;6.04;59.88;95874.47;1743325;81;21214;-61
2021/03/30 06:23:47;;;;;;;81.20;52.93;;;;;;;6.07;59.89;95872.33;1760040;80;22054;-61
2021/03/30 06:26:31;;;;;;;70.10;44.08;;;;;;;6.03;59.75;95870.98;1758102;80;21172;-62
2021/03/30 06:29:10;;;;;;;63.58;41.37;;;;;;;6.02;59.77;95869.98;1769575;80;21153;-69
2021/03/30 06:31:45;;;;;;;105.27;61.05;;;;;;;6.07;59.89;95869.02;1765905;80;21222;-59
2021/03/30 06:34:28;;;;;;;137.25;80.70;;;;;;;6.18;60.15;95872.51;1786400;79;21219;-63
